sensor_id;sensor_type;location;lat;lon;timestamp;P1;durP1;ratioP1;P2;durP2;ratioP2
21769;SDS011;11046;49.558;8.674;2024-02-26T00:01:46;1.67;;;1.27;;
21769;SDS011;11046;49.558;8.674;2024-02-26T00:04:46;1.90;;;1.30;;
21769;SDS011;11046;49.558;8.674;2024-02-26T00:07:47;1.63;;;1.20;;
21769;SDS011;11046;49.558;8.674;2024-02-26T00:10:48;1.80;;;1.30;;
21769;SDS011;11046;49.558;8.674;2024-02-26T00:13:49;1.90;;;1.30;;
21769;SDS011;11046;49.558;8.674;2024-02-26T00:16:49;1.60;;;1.20;;
21769;SDS011;11046;49.558;8.674;2024-02-26T00:19:50;1.50;;;1.30;;
21769;SDS011;11046;49.558;8.674;2024-02-26T00:22:51;2.70;;;1.30;;
21769;SDS011;11046;49.558;8.674;2024-02-26T00:25:52;2.53;;;1.30;;
21769;SDS011;11046;49.558;8.674;2024-02-26T00:28:52;3.83;;;1.50;;
21769;SDS011;11046;49.558;8.674;2024-02-26T00:31:53;1.57;;;1.30;;
21769;SDS011;11046;49.558;8.674;2024-02-26T00:34:53;2.77;;;1.50;;
21769;SDS011;11046;49.558;8.674;2024-02-26T00:37:54;3.87;;;1.47;;
21769;SDS011;11046;49.558;8.674;2024-02-26T00:40:54;2.00;;;1.33;;
21769;SDS011;11046;49.558;8.674;2024-02-26T00:43:55;1.63;;;1.30;;
21769;SDS011;11046;49.558;8.674;2024-02-26T00:46:56;3.10;;;1.50;;
21769;SDS011;11046;49.558;8.674;2024-02-26T00:49:56;1.97;;;1.30;;
21769;SDS011;11046;49.558;8.674;2024-02-26T00:52:57;2.03;;;1.30;;
21769;SDS011;11046;49.558;8.674;2024-02-26T00:55:58;1.73;;;1.30;;
21769;SDS011;11046;49.558;8.674;2024-02-26T00:59:01;2.40;;;1.30;;
21769;SDS011;11046;49.558;8.674;2024-02-26T01:02:02;1.87;;;1.40;;
21769;SDS011;11046;49.558;8.674;2024-02-26T01:05:04;3.03;;;1.33;;
21769;SDS011;11046;49.558;8.674;2024-02-26T01:08:06;2.60;;;1.50;;
21769;SDS011;11046;49.558;8.674;2024-02-26T01:11:06;1.83;;;1.47;;
21769;SDS011;11046;49.558;8.674;2024-02-26T01:14:07;1.40;;;1.17;;
21769;SDS011;11046;49.558;8.674;2024-02-26T01:17:08;3.93;;;2.00;;
21769;SDS011;11046;49.558;8.674;2024-02-26T01:20:09;3.43;;;1.80;;
21769;SDS011;11046;49.558;8.674;2024-02-26T01:23:10;4.20;;;1.60;;
21769;SDS011;11046;49.558;8.674;2024-02-26T01:26:10;2.80;;;1.53;;
21769;SDS011;11046;49.558;8.674;2024-02-26T01:29:11;3.97;;;1.70;;
21769;SDS011;11046;49.558;8.674;2024-02-26T01:32:11;3.73;;;2.40;;
21769;SDS011;11046;49.558;8.674;2024-02-26T01:35:12;5.00;;;3.20;;
21769;SDS011;11046;49.558;8.674;2024-02-26T01:38:13;2.83;;;1.90;;
21769;SDS011;11046;49.558;8.674;2024-02-26T01:41:14;1.73;;;1.43;;
21769;SDS011;11046;49.558;8.674;2024-02-26T01:44:15;3.70;;;1.97;;
21769;SDS011;11046;49.558;8.674;2024-02-26T01:47:15;2.93;;;1.80;;
21769;SDS011;11046;49.558;8.674;2024-02-26T01:50:16;3.40;;;1.67;;
21769;SDS011;11046;49.558;8.674;2024-02-26T01:53:18;2.00;;;1.30;;
21769;SDS011;11046;49.558;8.674;2024-02-26T01:56:19;1.90;;;1.50;;
21769;SDS011;11046;49.558;8.674;2024-02-26T01:59:21;2.37;;;1.63;;
21769;SDS011;11046;49.558;8.674;2024-02-26T02:02:22;2.53;;;1.57;;
21769;SDS011;11046;49.558;8.674;2024-02-26T02:05:23;2.13;;;1.50;;
21769;SDS011;11046;49.558;8.674;2024-02-26T02:08:26;1.70;;;1.40;;
21769;SDS011;11046;49.558;8.674;2024-02-26T02:11:27;2.03;;;1.40;;
21769;SDS011;11046;49.558;8.674;2024-02-26T02:14:28;1.93;;;1.40;;
21769;SDS011;11046;49.558;8.674;2024-02-26T02:17:28;2.33;;;1.40;;
21769;SDS011;11046;49.558;8.674;2024-02-26T02:20:32;2.13;;;1.70;;
21769;SDS011;11046;49.558;8.674;2024-02-26T02:23:34;2.67;;;1.50;;
21769;SDS011;11046;49.558;8.674;2024-02-26T02:26:34;1.90;;;1.30;;
21769;SDS011;11046;49.558;8.674;2024-02-26T02:29:35;1.60;;;1.30;;
21769;SDS011;11046;49.558;8.674;2024-02-26T02:32:37;3.33;;;1.67;;
21769;SDS011;11046;49.558;8.674;2024-02-26T02:35:40;1.80;;;1.13;;
21769;SDS011;11046;49.558;8.674;2024-02-26T02:38:48;3.10;;;1.10;;
21769;SDS011;11046;49.558;8.674;2024-02-26T02:41:52;2.20;;;1.30;;
21769;SDS011;11046;49.558;8.674;2024-02-26T02:44:52;2.27;;;1.43;;
21769;SDS011;11046;49.558;8.674;2024-02-26T02:47:53;2.40;;;1.33;;
21769;SDS011;11046;49.558;8.674;2024-02-26T02:50:54;2.10;;;1.30;;
21769;SDS011;11046;49.558;8.674;2024-02-26T02:53:55;1.63;;;1.30;;
21769;SDS011;11046;49.558;8.674;2024-02-26T02:56:56;1.30;;;1.13;;
21769;SDS011;11046;49.558;8.674;2024-02-26T02:59:57;3.90;;;1.00;;
21769;SDS011;11046;49.558;8.674;2024-02-26T03:02:57;1.73;;;1.30;;
21769;SDS011;11046;49.558;8.674;2024-02-26T03:05:58;1.77;;;1.20;;
21769;SDS011;11046;49.558;8.674;2024-02-26T03:08:58;1.30;;;1.20;;
21769;SDS011;11046;49.558;8.674;2024-02-26T03:11:59;1.70;;;1.20;;
21769;SDS011;11046;49.558;8.674;2024-02-26T03:15:00;1.60;;;1.13;;
21769;SDS011;11046;49.558;8.674;2024-02-26T03:18:04;2.10;;;1.30;;
21769;SDS011;11046;49.558;8.674;2024-02-26T03:21:05;1.80;;;1.30;;
21769;SDS011;11046;49.558;8.674;2024-02-26T03:24:06;3.67;;;1.43;;
21769;SDS011;11046;49.558;8.674;2024-02-26T03:27:09;1.70;;;1.10;;
21769;SDS011;11046;49.558;8.674;2024-02-26T03:30:09;1.90;;;1.43;;
21769;SDS011;11046;49.558;8.674;2024-02-26T03:33:10;2.43;;;1.07;;
21769;SDS011;11046;49.558;8.674;2024-02-26T03:36:11;2.03;;;1.20;;
21769;SDS011;11046;49.558;8.674;2024-02-26T03:39:11;1.20;;;1.00;;
21769;SDS011;11046;49.558;8.674;2024-02-26T03:42:12;2.80;;;1.33;;
21769;SDS011;11046;49.558;8.674;2024-02-26T03:45:13;2.20;;;1.27;;
21769;SDS011;11046;49.558;8.674;2024-02-26T03:48:13;2.47;;;1.10;;
21769;SDS011;11046;49.558;8.674;2024-02-26T03:51:14;1.70;;;1.23;;
21769;SDS011;11046;49.558;8.674;2024-02-26T03:54:14;2.43;;;1.20;;
21769;SDS011;11046;49.558;8.674;2024-02-26T03:57:15;1.70;;;1.50;;
21769;SDS011;11046;49.558;8.674;2024-02-26T04:00:16;1.90;;;1.33;;
21769;SDS011;11046;49.558;8.674;2024-02-26T04:03:16;1.70;;;1.20;;
21769;SDS011;11046;49.558;8.674;2024-02-26T04:06:17;2.13;;;1.50;;
21769;SDS011;11046;49.558;8.674;2024-02-26T04:09:19;1.80;;;1.20;;
21769;SDS011;11046;49.558;8.674;2024-02-26T04:12:20;3.00;;;1.57;;
21769;SDS011;11046;49.558;8.674;2024-02-26T04:15:20;1.80;;;1.40;;
21769;SDS011;11046;49.558;8.674;2024-02-26T04:18:21;1.70;;;1.20;;
21769;SDS011;11046;49.558;8.674;2024-02-26T04:21:21;2.10;;;1.50;;
21769;SDS011;11046;49.558;8.674;2024-02-26T04:24:22;3.23;;;1.40;;
21769;SDS011;11046;49.558;8.674;2024-02-26T04:27:22;1.63;;;1.30;;
21769;SDS011;11046;49.558;8.674;2024-02-26T04:30:23;2.90;;;1.40;;
21769;SDS011;11046;49.558;8.674;2024-02-26T04:33:24;1.57;;;1.27;;
21769;SDS011;11046;49.558;8.674;2024-02-26T04:36:24;1.20;;;1.10;;
21769;SDS011;11046;49.558;8.674;2024-02-26T04:39:26;1.43;;;1.20;;
21769;SDS011;11046;49.558;8.674;2024-02-26T04:42:26;2.57;;;1.27;;
21769;SDS011;11046;49.558;8.674;2024-02-26T04:45:27;1.30;;;1.20;;
21769;SDS011;11046;49.558;8.674;2024-02-26T04:48:28;1.87;;;1.23;;
21769;SDS011;11046;49.558;8.674;2024-02-26T04:51:28;3.37;;;1.23;;
21769;SDS011;11046;49.558;8.674;2024-02-26T04:54:29;2.03;;;1.30;;
21769;SDS011;11046;49.558;8.674;2024-02-26T04:57:29;3.80;;;1.00;;
21769;SDS011;11046;49.558;8.674;2024-02-26T05:00:30;1.50;;;1.00;;
21769;SDS011;11046;49.558;8.674;2024-02-26T05:03:30;1.50;;;0.90;;
21769;SDS011;11046;49.558;8.674;2024-02-26T05:06:31;1.50;;;0.87;;
21769;SDS011;11046;49.558;8.674;2024-02-26T05:09:32;2.13;;;0.83;;
21769;SDS011;11046;49.558;8.674;2024-02-26T05:12:32;1.33;;;1.10;;
21769;SDS011;11046;49.558;8.674;2024-02-26T05:15:35;1.40;;;0.90;;
21769;SDS011;11046;49.558;8.674;2024-02-26T05:18:36;1.27;;;1.00;;
21769;SDS011;11046;49.558;8.674;2024-02-26T05:21:36;1.17;;;0.87;;
21769;SDS011;11046;49.558;8.674;2024-02-26T05:24:37;1.00;;;0.90;;
21769;SDS011;11046;49.558;8.674;2024-02-26T05:27:38;1.07;;;0.90;;
21769;SDS011;11046;49.558;8.674;2024-02-26T05:30:39;2.07;;;1.10;;
21769;SDS011;11046;49.558;8.674;2024-02-26T05:33:40;2.50;;;0.90;;
21769;SDS011;11046;49.558;8.674;2024-02-26T05:36:40;1.17;;;0.90;;
21769;SDS011;11046;49.558;8.674;2024-02-26T05:39:41;2.20;;;0.90;;
21769;SDS011;11046;49.558;8.674;2024-02-26T05:42:41;1.13;;;1.00;;
21769;SDS011;11046;49.558;8.674;2024-02-26T05:45:44;4.33;;;1.10;;
21769;SDS011;11046;49.558;8.674;2024-02-26T05:48:50;0.97;;;0.87;;
21769;SDS011;11046;49.558;8.674;2024-02-26T05:51:51;1.23;;;1.00;;
21769;SDS011;11046;49.558;8.674;2024-02-26T05:54:51;1.63;;;1.07;;
21769;SDS011;11046;49.558;8.674;2024-02-26T05:57:52;1.20;;;1.07;;
21769;SDS011;11046;49.558;8.674;2024-02-26T06:04:22;1.30;;;0.97;;
21769;SDS011;11046;49.558;8.674;2024-02-26T06:07:23;1.70;;;1.17;;
21769;SDS011;11046;49.558;8.674;2024-02-26T06:10:23;1.33;;;1.07;;
21769;SDS011;11046;49.558;8.674;2024-02-26T06:13:24;1.40;;;1.00;;
21769;SDS011;11046;49.558;8.674;2024-02-26T06:16:25;1.50;;;1.10;;
21769;SDS011;11046;49.558;8.674;2024-02-26T06:19:25;1.50;;;1.00;;
21769;SDS011;11046;49.558;8.674;2024-02-26T06:22:26;1.07;;;0.80;;
21769;SDS011;11046;49.558;8.674;2024-02-26T06:25:27;3.80;;;1.13;;
21769;SDS011;11046;49.558;8.674;2024-02-26T06:28:27;1.80;;;1.20;;
21769;SDS011;11046;49.558;8.674;2024-02-26T06:31:30;1.30;;;1.00;;
21769;SDS011;11046;49.558;8.674;2024-02-26T06:34:31;3.27;;;1.10;;
21769;SDS011;11046;49.558;8.674;2024-02-26T06:37:32;1.70;;;0.90;;
21769;SDS011;11046;49.558;8.674;2024-02-26T06:40:33;2.80;;;1.50;;
21769;SDS011;11046;49.558;8.674;2024-02-26T06:43:34;1.10;;;0.77;;
21769;SDS011;11046;49.558;8.674;2024-02-26T06:46:35;2.73;;;1.10;;
21769;SDS011;11046;49.558;8.674;2024-02-26T06:49:35;3.60;;;1.10;;
21769;SDS011;11046;49.558;8.674;2024-02-26T06:52:36;2.37;;;1.50;;
21769;SDS011;11046;49.558;8.674;2024-02-26T06:55:39;1.40;;;1.20;;
21769;SDS011;11046;49.558;8.674;2024-02-26T06:58:40;4.87;;;1.50;;
21769;SDS011;11046;49.558;8.674;2024-02-26T07:01:41;1.30;;;1.07;;
21769;SDS011;11046;49.558;8.674;2024-02-26T07:04:42;3.33;;;1.40;;
21769;SDS011;11046;49.558;8.674;2024-02-26T07:07:43;2.07;;;1.37;;
21769;SDS011;11046;49.558;8.674;2024-02-26T07:10:44;2.40;;;1.17;;
21769;SDS011;11046;49.558;8.674;2024-02-26T07:13:48;2.67;;;1.50;;
21769;SDS011;11046;49.558;8.674;2024-02-26T07:16:49;4.20;;;2.10;;
21769;SDS011;11046;49.558;8.674;2024-02-26T07:19:50;1.97;;;1.30;;
21769;SDS011;11046;49.558;8.674;2024-02-26T07:22:52;1.60;;;1.10;;
21769;SDS011;11046;49.558;8.674;2024-02-26T07:25:53;1.83;;;1.13;;
21769;SDS011;11046;49.558;8.674;2024-02-26T07:28:54;3.13;;;1.77;;
21769;SDS011;11046;49.558;8.674;2024-02-26T07:31:55;1.83;;;1.40;;
21769;SDS011;11046;49.558;8.674;2024-02-26T07:35:01;2.57;;;1.53;;
21769;SDS011;11046;49.558;8.674;2024-02-26T07:38:03;2.57;;;1.50;;
21769;SDS011;11046;49.558;8.674;2024-02-26T07:41:04;1.87;;;1.17;;
21769;SDS011;11046;49.558;8.674;2024-02-26T07:44:07;2.50;;;1.50;;
21769;SDS011;11046;49.558;8.674;2024-02-26T07:47:09;2.63;;;1.80;;
21769;SDS011;11046;49.558;8.674;2024-02-26T07:50:09;2.23;;;1.40;;
21769;SDS011;11046;49.558;8.674;2024-02-26T07:53:12;3.33;;;2.10;;
21769;SDS011;11046;49.558;8.674;2024-02-26T07:56:13;3.90;;;2.30;;
21769;SDS011;11046;49.558;8.674;2024-02-26T07:59:14;5.47;;;2.60;;
21769;SDS011;11046;49.558;8.674;2024-02-26T08:02:15;2.60;;;1.40;;
21769;SDS011;11046;49.558;8.674;2024-02-26T08:05:16;1.87;;;1.20;;
21769;SDS011;11046;49.558;8.674;2024-02-26T08:08:17;2.03;;;1.10;;
21769;SDS011;11046;49.558;8.674;2024-02-26T08:11:18;1.13;;;1.03;;
21769;SDS011;11046;49.558;8.674;2024-02-26T08:14:18;1.53;;;1.20;;
21769;SDS011;11046;49.558;8.674;2024-02-26T08:17:21;2.80;;;1.50;;
21769;SDS011;11046;49.558;8.674;2024-02-26T08:20:25;1.83;;;1.20;;
21769;SDS011;11046;49.558;8.674;2024-02-26T08:23:28;1.70;;;1.20;;
21769;SDS011;11046;49.558;8.674;2024-02-26T08:26:29;1.10;;;1.00;;
21769;SDS011;11046;49.558;8.674;2024-02-26T08:29:30;1.27;;;0.93;;
21769;SDS011;11046;49.558;8.674;2024-02-26T08:32:30;1.03;;;0.93;;
21769;SDS011;11046;49.558;8.674;2024-02-26T08:35:32;3.00;;;1.07;;
21769;SDS011;11046;49.558;8.674;2024-02-26T08:38:33;2.90;;;1.10;;
21769;SDS011;11046;49.558;8.674;2024-02-26T08:41:35;1.00;;;0.90;;
21769;SDS011;11046;49.558;8.674;2024-02-26T08:44:36;1.63;;;1.20;;
21769;SDS011;11046;49.558;8.674;2024-02-26T08:47:37;1.13;;;0.90;;
21769;SDS011;11046;49.558;8.674;2024-02-26T08:50:37;1.10;;;1.00;;
21769;SDS011;11046;49.558;8.674;2024-02-26T08:53:38;2.43;;;1.00;;
21769;SDS011;11046;49.558;8.674;2024-02-26T08:56:39;1.80;;;1.23;;
21769;SDS011;11046;49.558;8.674;2024-02-26T08:59:39;2.43;;;1.10;;
21769;SDS011;11046;49.558;8.674;2024-02-26T09:02:40;1.20;;;1.10;;
21769;SDS011;11046;49.558;8.674;2024-02-26T09:05:42;2.17;;;1.10;;
21769;SDS011;11046;49.558;8.674;2024-02-26T09:08:43;3.23;;;1.70;;
21769;SDS011;11046;49.558;8.674;2024-02-26T09:11:44;2.53;;;0.93;;
21769;SDS011;11046;49.558;8.674;2024-02-26T09:14:44;1.53;;;1.20;;
21769;SDS011;11046;49.558;8.674;2024-02-26T09:17:45;2.30;;;1.00;;
21769;SDS011;11046;49.558;8.674;2024-02-26T09:20:46;2.93;;;1.73;;
21769;SDS011;11046;49.558;8.674;2024-02-26T09:23:46;1.23;;;1.10;;
21769;SDS011;11046;49.558;8.674;2024-02-26T09:26:47;1.63;;;1.13;;
21769;SDS011;11046;49.558;8.674;2024-02-26T09:29:47;1.43;;;1.17;;
21769;SDS011;11046;49.558;8.674;2024-02-26T09:32:48;3.80;;;1.10;;
21769;SDS011;11046;49.558;8.674;2024-02-26T09:35:48;1.63;;;1.20;;
21769;SDS011;11046;49.558;8.674;2024-02-26T09:38:49;2.20;;;1.30;;
21769;SDS011;11046;49.558;8.674;2024-02-26T09:41:54;3.90;;;1.30;;
21769;SDS011;11046;49.558;8.674;2024-02-26T09:44:55;1.30;;;1.10;;
21769;SDS011;11046;49.558;8.674;2024-02-26T09:47:58;1.33;;;1.13;;
21769;SDS011;11046;49.558;8.674;2024-02-26T09:51:01;2.27;;;1.07;;
21769;SDS011;11046;49.558;8.674;2024-02-26T09:54:03;1.63;;;1.10;;
21769;SDS011;11046;49.558;8.674;2024-02-26T09:57:05;1.50;;;1.10;;
21769;SDS011;11046;49.558;8.674;2024-02-26T10:00:18;2.43;;;1.20;;
21769;SDS011;11046;49.558;8.674;2024-02-26T10:03:21;2.50;;;1.30;;
21769;SDS011;11046;49.558;8.674;2024-02-26T10:06:28;1.50;;;1.00;;
21769;SDS011;11046;49.558;8.674;2024-02-26T10:09:29;1.43;;;1.20;;
21769;SDS011;11046;49.558;8.674;2024-02-26T10:12:32;3.47;;;1.20;;
21769;SDS011;11046;49.558;8.674;2024-02-26T10:15:33;2.23;;;1.20;;
21769;SDS011;11046;49.558;8.674;2024-02-26T10:18:46;1.50;;;1.27;;
21769;SDS011;11046;49.558;8.674;2024-02-26T10:21:53;3.43;;;1.43;;
21769;SDS011;11046;49.558;8.674;2024-02-26T10:24:59;1.40;;;1.13;;
21769;SDS011;11046;49.558;8.674;2024-02-26T10:28:03;1.40;;;1.10;;
21769;SDS011;11046;49.558;8.674;2024-02-26T10:31:07;2.80;;;1.20;;
21769;SDS011;11046;49.558;8.674;2024-02-26T10:34:09;1.30;;;1.10;;
21769;SDS011;11046;49.558;8.674;2024-02-26T10:37:13;2.53;;;0.90;;
21769;SDS011;11046;49.558;8.674;2024-02-26T10:40:14;2.77;;;1.20;;
21769;SDS011;11046;49.558;8.674;2024-02-26T10:43:16;2.93;;;1.17;;
21769;SDS011;11046;49.558;8.674;2024-02-26T10:46:18;2.13;;;1.10;;
21769;SDS011;11046;49.558;8.674;2024-02-26T10:49:19;1.77;;;1.00;;
21769;SDS011;11046;49.558;8.674;2024-02-26T10:52:20;1.30;;;1.10;;
21769;SDS011;11046;49.558;8.674;2024-02-26T10:55:23;1.10;;;0.93;;
21769;SDS011;11046;49.558;8.674;2024-02-26T10:58:24;1.20;;;0.90;;
21769;SDS011;11046;49.558;8.674;2024-02-26T11:01:26;1.40;;;0.90;;
21769;SDS011;11046;49.558;8.674;2024-02-26T11:04:32;1.10;;;0.80;;
21769;SDS011;11046;49.558;8.674;2024-02-26T11:07:37;1.43;;;0.60;;
21769;SDS011;11046;49.558;8.674;2024-02-26T11:10:41;0.80;;;0.80;;
21769;SDS011;11046;49.558;8.674;2024-02-26T11:13:43;1.07;;;0.83;;
21769;SDS011;11046;49.558;8.674;2024-02-26T11:16:49;1.30;;;0.83;;
21769;SDS011;11046;49.558;8.674;2024-02-26T11:19:55;7.03;;;2.55;;
21769;SDS011;11046;49.558;8.674;2024-02-26T11:22:58;0.90;;;0.80;;
21769;SDS011;11046;49.558;8.674;2024-02-26T11:26:01;0.90;;;0.90;;
21769;SDS011;11046;49.558;8.674;2024-02-26T11:29:03;2.00;;;0.73;;
21769;SDS011;11046;49.558;8.674;2024-02-26T11:32:05;2.50;;;0.80;;
21769;SDS011;11046;49.558;8.674;2024-02-26T11:35:06;0.85;;;0.68;;
21769;SDS011;11046;49.558;8.674;2024-02-26T11:38:08;0.83;;;0.70;;
21769;SDS011;11046;49.558;8.674;2024-02-26T11:41:18;1.00;;;0.75;;
21769;SDS011;11046;49.558;8.674;2024-02-26T11:44:31;2.33;;;0.77;;
21769;SDS011;11046;49.558;8.674;2024-02-26T11:47:31;0.80;;;0.80;;
21769;SDS011;11046;49.558;8.674;2024-02-26T11:50:35;0.80;;;0.70;;
21769;SDS011;11046;49.558;8.674;2024-02-26T11:53:46;1.17;;;0.80;;
21769;SDS011;11046;49.558;8.674;2024-02-26T11:56:50;0.80;;;0.75;;
21769;SDS011;11046;49.558;8.674;2024-02-26T11:59:50;1.00;;;0.80;;
21769;SDS011;11046;49.558;8.674;2024-02-26T12:02:52;2.00;;;0.77;;
21769;SDS011;11046;49.558;8.674;2024-02-26T12:06:01;0.60;;;0.50;;
21769;SDS011;11046;49.558;8.674;2024-02-26T12:09:02;0.68;;;0.60;;
21769;SDS011;11046;49.558;8.674;2024-02-26T12:12:03;0.65;;;0.57;;
21769;SDS011;11046;49.558;8.674;2024-02-26T12:15:08;1.75;;;0.68;;
21769;SDS011;11046;49.558;8.674;2024-02-26T12:18:17;0.50;;;0.50;;
21769;SDS011;11046;49.558;8.674;2024-02-26T12:21:18;1.02;;;0.60;;
21769;SDS011;11046;49.558;8.674;2024-02-26T12:24:19;1.27;;;0.70;;
21769;SDS011;11046;49.558;8.674;2024-02-26T12:27:20;2.53;;;0.90;;
21769;SDS011;11046;49.558;8.674;2024-02-26T12:30:21;0.60;;;0.60;;
21769;SDS011;11046;49.558;8.674;2024-02-26T12:33:23;0.95;;;0.73;;
21769;SDS011;11046;49.558;8.674;2024-02-26T12:36:26;0.70;;;0.60;;
21769;SDS011;11046;49.558;8.674;2024-02-26T12:39:27;2.28;;;0.80;;
21769;SDS011;11046;49.558;8.674;2024-02-26T12:42:28;0.73;;;0.70;;
21769;SDS011;11046;49.558;8.674;2024-02-26T12:45:30;0.70;;;0.70;;
21769;SDS011;11046;49.558;8.674;2024-02-26T12:48:31;0.80;;;0.75;;
21769;SDS011;11046;49.558;8.674;2024-02-26T12:51:32;1.38;;;0.82;;
21769;SDS011;11046;49.558;8.674;2024-02-26T12:54:33;1.40;;;0.90;;
21769;SDS011;11046;49.558;8.674;2024-02-26T12:57:35;2.35;;;0.98;;
21769;SDS011;11046;49.558;8.674;2024-02-26T13:00:38;1.50;;;0.60;;
21769;SDS011;11046;49.558;8.674;2024-02-26T13:03:38;2.15;;;0.70;;
21769;SDS011;11046;49.558;8.674;2024-02-26T13:06:39;0.60;;;0.60;;
21769;SDS011;11046;49.558;8.674;2024-02-26T13:09:40;0.80;;;0.80;;
21769;SDS011;11046;49.558;8.674;2024-02-26T13:12:44;0.60;;;0.50;;
21769;SDS011;11046;49.558;8.674;2024-02-26T13:16:05;2.45;;;1.35;;
21769;SDS011;11046;49.558;8.674;2024-02-26T13:19:09;2.78;;;0.90;;
21769;SDS011;11046;49.558;8.674;2024-02-26T13:22:10;1.02;;;0.85;;
21769;SDS011;11046;49.558;8.674;2024-02-26T13:25:10;1.20;;;1.00;;
21769;SDS011;11046;49.558;8.674;2024-02-26T13:28:15;0.98;;;0.88;;
21769;SDS011;11046;49.558;8.674;2024-02-26T13:31:17;1.95;;;0.60;;
21769;SDS011;11046;49.558;8.674;2024-02-26T13:34:28;0.68;;;0.68;;
21769;SDS011;11046;49.558;8.674;2024-02-26T13:37:30;0.70;;;0.70;;
21769;SDS011;11046;49.558;8.674;2024-02-26T13:40:31;0.98;;;0.75;;
21769;SDS011;11046;49.558;8.674;2024-02-26T13:43:32;0.60;;;0.50;;
21769;SDS011;11046;49.558;8.674;2024-02-26T13:46:32;1.00;;;0.70;;
21769;SDS011;11046;49.558;8.674;2024-02-26T13:49:33;0.50;;;0.50;;
21769;SDS011;11046;49.558;8.674;2024-02-26T13:52:33;0.65;;;0.52;;
21769;SDS011;11046;49.558;8.674;2024-02-26T13:55:34;0.50;;;0.40;;
21769;SDS011;11046;49.558;8.674;2024-02-26T13:58:36;0.95;;;0.50;;
21769;SDS011;11046;49.558;8.674;2024-02-26T14:01:37;0.30;;;0.30;;
21769;SDS011;11046;49.558;8.674;2024-02-26T14:04:38;1.10;;;0.50;;
21769;SDS011;11046;49.558;8.674;2024-02-26T14:07:39;3.72;;;1.60;;
21769;SDS011;11046;49.558;8.674;2024-02-26T14:10:39;2.53;;;1.70;;
21769;SDS011;11046;49.558;8.674;2024-02-26T14:13:40;3.30;;;1.50;;
21769;SDS011;11046;49.558;8.674;2024-02-26T14:16:40;2.13;;;0.90;;
21769;SDS011;11046;49.558;8.674;2024-02-26T14:19:41;0.93;;;0.60;;
21769;SDS011;11046;49.558;8.674;2024-02-26T14:22:44;0.80;;;0.60;;
21769;SDS011;11046;49.558;8.674;2024-02-26T14:25:44;0.73;;;0.45;;
21769;SDS011;11046;49.558;8.674;2024-02-26T14:28:45;0.77;;;0.60;;
21769;SDS011;11046;49.558;8.674;2024-02-26T14:31:46;0.57;;;0.57;;
21769;SDS011;11046;49.558;8.674;2024-02-26T14:34:47;1.00;;;0.90;;
21769;SDS011;11046;49.558;8.674;2024-02-26T14:37:48;0.65;;;0.50;;
21769;SDS011;11046;49.558;8.674;2024-02-26T14:40:50;0.77;;;0.60;;
21769;SDS011;11046;49.558;8.674;2024-02-26T14:43:50;0.80;;;0.70;;
21769;SDS011;11046;49.558;8.674;2024-02-26T14:46:51;0.75;;;0.70;;
21769;SDS011;11046;49.558;8.674;2024-02-26T14:49:52;0.70;;;0.70;;
21769;SDS011;11046;49.558;8.674;2024-02-26T14:52:52;2.92;;;0.80;;
21769;SDS011;11046;49.558;8.674;2024-02-26T14:55:53;1.80;;;0.95;;
21769;SDS011;11046;49.558;8.674;2024-02-26T14:58:54;1.10;;;0.90;;
21769;SDS011;11046;49.558;8.674;2024-02-26T15:01:54;1.58;;;0.98;;
21769;SDS011;11046;49.558;8.674;2024-02-26T15:04:55;2.65;;;1.10;;
21769;SDS011;11046;49.558;8.674;2024-02-26T15:07:55;1.67;;;1.20;;
21769;SDS011;11046;49.558;8.674;2024-02-26T15:10:56;2.45;;;1.38;;
21769;SDS011;11046;49.558;8.674;2024-02-26T15:13:57;2.13;;;1.55;;
21769;SDS011;11046;49.558;8.674;2024-02-26T15:16:57;1.52;;;1.30;;
21769;SDS011;11046;49.558;8.674;2024-02-26T15:19:58;2.13;;;1.30;;
21769;SDS011;11046;49.558;8.674;2024-02-26T15:22:59;1.52;;;1.35;;
21769;SDS011;11046;49.558;8.674;2024-02-26T15:26:00;3.03;;;1.50;;
21769;SDS011;11046;49.558;8.674;2024-02-26T15:29:00;2.53;;;1.50;;
21769;SDS011;11046;49.558;8.674;2024-02-26T15:32:01;2.55;;;1.45;;
21769;SDS011;11046;49.558;8.674;2024-02-26T15:35:01;3.72;;;1.48;;
21769;SDS011;11046;49.558;8.674;2024-02-26T15:38:02;3.00;;;1.60;;
21769;SDS011;11046;49.558;8.674;2024-02-26T15:41:10;1.70;;;1.60;;
21769;SDS011;11046;49.558;8.674;2024-02-26T15:44:12;2.03;;;1.70;;
21769;SDS011;11046;49.558;8.674;2024-02-26T15:47:12;2.53;;;1.85;;
21769;SDS011;11046;49.558;8.674;2024-02-26T15:50:13;2.50;;;1.92;;
21769;SDS011;11046;49.558;8.674;2024-02-26T15:53:16;2.33;;;1.90;;
21769;SDS011;11046;49.558;8.674;2024-02-26T15:56:21;4.57;;;2.20;;
21769;SDS011;11046;49.558;8.674;2024-02-26T15:59:26;4.28;;;1.92;;
21769;SDS011;11046;49.558;8.674;2024-02-26T16:02:27;2.25;;;1.50;;
21769;SDS011;11046;49.558;8.674;2024-02-26T16:05:29;3.72;;;1.70;;
21769;SDS011;11046;49.558;8.674;2024-02-26T16:08:30;2.85;;;1.83;;
21769;SDS011;11046;49.558;8.674;2024-02-26T16:11:33;3.70;;;2.40;;
21769;SDS011;11046;49.558;8.674;2024-02-26T16:14:41;6.78;;;2.60;;
21769;SDS011;11046;49.558;8.674;2024-02-26T16:17:49;4.20;;;2.58;;
21769;SDS011;11046;49.558;8.674;2024-02-26T16:20:52;5.28;;;2.60;;
21769;SDS011;11046;49.558;8.674;2024-02-26T16:23:54;3.50;;;2.40;;
21769;SDS011;11046;49.558;8.674;2024-02-26T16:26:55;4.03;;;2.70;;
21769;SDS011;11046;49.558;8.674;2024-02-26T16:29:56;4.28;;;2.70;;
21769;SDS011;11046;49.558;8.674;2024-02-26T16:32:57;5.35;;;2.90;;
21769;SDS011;11046;49.558;8.674;2024-02-26T16:36:00;6.03;;;3.72;;
21769;SDS011;11046;49.558;8.674;2024-02-26T16:39:06;4.75;;;2.95;;
21769;SDS011;11046;49.558;8.674;2024-02-26T16:42:07;5.75;;;3.40;;
21769;SDS011;11046;49.558;8.674;2024-02-26T16:45:14;10.13;;;3.38;;
21769;SDS011;11046;49.558;8.674;2024-02-26T16:48:14;5.90;;;3.45;;
21769;SDS011;11046;49.558;8.674;2024-02-26T16:51:15;6.10;;;3.53;;
21769;SDS011;11046;49.558;8.674;2024-02-26T16:54:16;6.35;;;3.50;;
21769;SDS011;11046;49.558;8.674;2024-02-26T16:57:19;6.75;;;3.60;;
21769;SDS011;11046;49.558;8.674;2024-02-26T17:00:21;6.90;;;3.72;;
21769;SDS011;11046;49.558;8.674;2024-02-26T17:03:22;8.07;;;4.20;;
21769;SDS011;11046;49.558;8.674;2024-02-26T17:06:22;8.23;;;4.38;;
21769;SDS011;11046;49.558;8.674;2024-02-26T17:09:23;6.28;;;3.80;;
21769;SDS011;11046;49.558;8.674;2024-02-26T17:12:24;6.53;;;3.97;;
21769;SDS011;11046;49.558;8.674;2024-02-26T17:15:24;5.85;;;3.75;;
21769;SDS011;11046;49.558;8.674;2024-02-26T17:18:26;6.38;;;3.83;;
21769;SDS011;11046;49.558;8.674;2024-02-26T17:21:26;10.13;;;4.72;;
21769;SDS011;11046;49.558;8.674;2024-02-26T17:24:27;8.88;;;5.35;;
21769;SDS011;11046;49.558;8.674;2024-02-26T17:27:28;9.15;;;4.47;;
21769;SDS011;11046;49.558;8.674;2024-02-26T17:30:34;10.50;;;5.40;;
21769;SDS011;11046;49.558;8.674;2024-02-26T17:33:35;10.13;;;5.45;;
21769;SDS011;11046;49.558;8.674;2024-02-26T17:36:36;8.30;;;4.95;;
21769;SDS011;11046;49.558;8.674;2024-02-26T17:39:44;10.73;;;6.30;;
21769;SDS011;11046;49.558;8.674;2024-02-26T17:42:47;12.30;;;5.88;;
21769;SDS011;11046;49.558;8.674;2024-02-26T17:45:53;10.27;;;4.97;;
21769;SDS011;11046;49.558;8.674;2024-02-26T17:48:56;9.03;;;5.47;;
21769;SDS011;11046;49.558;8.674;2024-02-26T17:51:57;8.38;;;4.43;;
21769;SDS011;11046;49.558;8.674;2024-02-26T17:54:58;6.77;;;4.63;;
21769;SDS011;11046;49.558;8.674;2024-02-26T17:58:00;9.00;;;4.80;;
21769;SDS011;11046;49.558;8.674;2024-02-26T18:01:01;8.95;;;4.88;;
21769;SDS011;11046;49.558;8.674;2024-02-26T18:04:02;6.80;;;4.43;;
21769;SDS011;11046;49.558;8.674;2024-02-26T18:07:03;8.00;;;4.50;;
21769;SDS011;11046;49.558;8.674;2024-02-26T18:10:05;7.17;;;4.10;;
21769;SDS011;11046;49.558;8.674;2024-02-26T18:13:09;8.43;;;4.60;;
21769;SDS011;11046;49.558;8.674;2024-02-26T18:16:09;9.53;;;4.80;;
21769;SDS011;11046;49.558;8.674;2024-02-26T18:19:13;6.80;;;4.40;;